Epic Capri — 9HA2845 — position and weather

sailwx.info

Track history (hours):
 
Tides and Currents Weather Stations Pressure Air Temp Water Temp Dewpoint Dewpoint Depression Visibility Wind Speed Wind Dir Waves Ship Positions

Epic Capri

Last reported at 2016-May-01 11:31 UTC. Time now 2016-May-01 11:48 UTC.
Position N 37°57' W 008°53'.

Length 99 m; draft 4.7 m.

Type: Ship (hazmat cat B). MMSI: 256325000.

Date/timePositionNaut miles runAvg speedWind from/ knotsBaromVisibWave heightAir tempDewpointWater temp
2016-May-01 11:31N 37°57' W 008°53'0 0.0
2016-May-01 10:31N 37°57' W 008°53'0 0.0
2016-May-01 09:31N 37°57' W 008°53'0 0.0
2016-May-01 08:31N 37°57' W 008°53'0 0.0
2016-May-01 07:31N 37°57' W 008°53'0 0.0
2016-May-01 06:31N 37°57' W 008°53'0 0.0
2016-May-01 05:31N 37°57' W 008°53'0 0.0
2016-May-01 04:28N 37°57' W 008°53'2 2.0
2016-May-01 03:33N 37°56' W 008°55'9 8.8
2016-May-01 02:33N 38°02' W 009°04'1010.2
2016-May-01 01:33N 38°05' W 009°16'1010.4
2016-May-01 00:33N 38°09' W 009°29'1010.0
2016-Apr-30 23:32N 38°13' W 009°41'  
2016-Apr-28 06:07N 38°43' W 009°57'1710.5
2016-Apr-28 04:29N 38°26' W 009°53'3010.0
2016-Apr-28 01:31N 38°09' W 009°22'1010.3
2016-Apr-28 00:33N 38°05' W 009°11'1010.4
2016-Apr-27 23:33N 37°59' W 008°59'5 5.5
2016-Apr-27 22:33N 37°57' W 008°53'0 0.1
2016-Apr-27 21:33N 37°57' W 008°53'0 0.0
2016-Apr-27 20:33N 37°57' W 008°53'0 0.0
2016-Apr-27 19:33N 37°57' W 008°53'0 0.0
2016-Apr-27 18:33N 37°57' W 008°53'0 0.0
2016-Apr-27 17:33N 37°57' W 008°53'0 0.0
2016-Apr-27 16:33N 37°57' W 008°53'0 0.0
2016-Apr-27 15:33N 37°57' W 008°53'0 0.0
2016-Apr-27 14:33N 37°57' W 008°53'0 0.0
2016-Apr-27 13:33N 37°57' W 008°53'0 0.0
2016-Apr-27 12:33N 37°57' W 008°53'0 0.0
2016-Apr-27 11:33N 37°57' W 008°53'0 0.0
2016-Apr-27 10:33N 37°57' W 008°53'0 0.0
2016-Apr-27 09:33N 37°57' W 008°53'0 0.0
2016-Apr-27 08:33N 37°57' W 008°53'0 0.0
2016-Apr-27 07:33N 37°57' W 008°53'0 0.0
2016-Apr-27 06:33N 37°57' W 008°53'0 0.0
2016-Apr-27 05:30N 37°57' W 008°53'0 0.0
2016-Apr-27 04:33N 37°57' W 008°53'0 0.0
2016-Apr-27 03:33N 37°57' W 008°53'0 0.0
2016-Apr-27 02:33N 37°57' W 008°53'0 0.0
2016-Apr-27 01:33N 37°57' W 008°53'0 0.0
2016-Apr-27 00:33N 37°57' W 008°53'0 0.0
2016-Apr-26 23:33N 37°57' W 008°53'0 0.0
2016-Apr-26 22:33N 37°57' W 008°53'0 0.0
2016-Apr-26 21:33N 37°57' W 008°53'3 2.6
2016-Apr-26 20:33N 37°55' W 008°53'0 0.2
2016-Apr-26 19:33N 37°54' W 008°53'0 0.0
2016-Apr-26 18:33N 37°54' W 008°53'0 0.0
2016-Apr-26 17:32N 37°54' W 008°53'0 0.0
2016-Apr-26 16:33N 37°54' W 008°53'0 0.0
2016-Apr-26 15:33N 37°54' W 008°53'0 0.0
2016-Apr-26 14:33N 37°54' W 008°53'0 0.0
2016-Apr-26 13:33N 37°54' W 008°53'0 0.0
2016-Apr-26 12:32N 37°54' W 008°53'0 0.0
2016-Apr-26 11:33N 37°54' W 008°53'0 0.0
2016-Apr-26 10:33N 37°54' W 008°53'0 0.0
2016-Apr-26 09:33N 37°54' W 008°53'0 0.0
2016-Apr-26 08:33N 37°54' W 008°53'0 0.0
2016-Apr-26 07:33N 37°54' W 008°53'0 0.0
2016-Apr-26 06:33N 37°54' W 008°53'0 0.0
2016-Apr-26 05:33N 37°54' W 008°53'0 0.0
2016-Apr-26 04:30N 37°54' W 008°53'0 0.0
2016-Apr-26 03:33N 37°54' W 008°53'0 0.0
2016-Apr-26 02:32N 37°54' W 008°53'0 0.0
2016-Apr-26 01:32N 37°54' W 008°53'0 0.0
2016-Apr-26 00:30N 37°54' W 008°53'0 0.0
2016-Apr-25 23:33N 37°54' W 008°53'0 0.0
2016-Apr-25 22:32N 37°54' W 008°53'0 0.0
2016-Apr-25 21:33N 37°54' W 008°53'0 0.0
2016-Apr-25 20:32N 37°54' W 008°53'0 0.0
2016-Apr-25 19:33N 37°54' W 008°53'0 0.0
2016-Apr-25 18:33N 37°54' W 008°53'0 0.0
2016-Apr-25 17:32N 37°54' W 008°53'0 0.0
2016-Apr-25 16:33N 37°54' W 008°53'0 0.0
2016-Apr-25 15:30N 37°54' W 008°53'0 0.0
2016-Apr-25 14:33N 37°54' W 008°53'0 0.0
2016-Apr-25 13:32N 37°54' W 008°53'0 0.0
2016-Apr-25 12:33N 37°54' W 008°53'0 0.0
2016-Apr-25 11:33N 37°54' W 008°53'0 0.0
2016-Apr-25 10:33N 37°54' W 008°53'0 0.0
2016-Apr-25 09:33N 37°54' W 008°53'0 0.0
2016-Apr-25 08:33N 37°54' W 008°53'0 0.0
2016-Apr-25 07:32N 37°54' W 008°53'0 0.0
2016-Apr-25 06:33N 37°54' W 008°53'2 2.1
2016-Apr-25 05:33N 37°54' W 008°55'8 7.8
2016-Apr-25 04:33N 37°53' W 009°05'1110.9
2016-Apr-25 03:33N 37°53' W 009°19'1110.8
2016-Apr-25 02:33N 37°53' W 009°32'1110.5
2016-Apr-25 01:33N 37°53' W 009°46'1110.2
2016-Apr-25 00:30N 37°53' W 009°59'1010.2
2016-Apr-24 23:33N 37°53' W 010°12'1010.2
2016-Apr-24 22:33N 37°53' W 010°24'1010.2
2016-Apr-24 21:33N 37°53' W 010°38'2410.3
2016-Apr-24 19:12N 37°53' W 011°08'  
2016-Apr-22 12:12N 37°53' W 024°01'710.8
2016-Apr-22 11:33N 37°51' W 024°09'1110.8
2016-Apr-22 10:33N 37°48' W 024°22'1110.8
2016-Apr-22 09:33N 37°45' W 024°36'1110.7
2016-Apr-22 08:33N 37°43' W 024°49'1110.6
2016-Apr-22 07:33N 37°40' W 025°02'1110.6
2016-Apr-22 06:34N 37°40' W 025°15'1010.5
2016-Apr-22 05:33N 37°40' W 025°28'9 9.4
2016-Apr-22 04:33N 37°44' W 025°39'1 0.9
2016-Apr-22 03:32N 37°44' W 025°40'0 0.0
2016-Apr-22 02:32N 37°44' W 025°40'0 0.0
2016-Apr-22 01:32N 37°44' W 025°40'0 0.0
2016-Apr-22 00:32N 37°44' W 025°40'0 0.0
2016-Apr-21 23:32N 37°44' W 025°40'0 0.0
2016-Apr-21 22:32N 37°44' W 025°40'0 0.0
2016-Apr-21 21:32N 37°44' W 025°40'0 0.0
2016-Apr-21 20:32N 37°44' W 025°40'0 0.0
2016-Apr-21 19:32N 37°44' W 025°40'0 0.0
2016-Apr-21 18:32N 37°44' W 025°40'0 0.0
2016-Apr-21 17:32N 37°44' W 025°40'0 0.0
2016-Apr-21 16:32N 37°44' W 025°40'0 0.0
2016-Apr-21 15:32N 37°44' W 025°40'0 0.0
2016-Apr-21 14:32N 37°44' W 025°40'0 0.0
2016-Apr-21 13:32N 37°44' W 025°40'0 0.0
2016-Apr-21 12:32N 37°44' W 025°40'0 0.0
2016-Apr-21 11:32N 37°44' W 025°40'  
Track history (hours):
 
Tides and Currents Weather Stations Pressure Air Temp Water Temp Dewpoint Dewpoint Depression Visibility Wind Speed Wind Dir Waves Ship Positions

Epic Capri

Last reported at 2016-May-01 11:31 UTC. Time now 2016-May-01 11:48 UTC.
Position N 37°57' W 008°53'.

Length 99 m; draft 4.7 m.

Type: Ship (hazmat cat B). MMSI: 256325000.

Date/timePositionNaut miles runAvg speedWind from/ knotsBaromVisibWave heightAir tempDewpointWater temp
2016-May-01 11:31N 37°57' W 008°53'0 0.0
2016-May-01 10:31N 37°57' W 008°53'0 0.0
2016-May-01 09:31N 37°57' W 008°53'0 0.0
2016-May-01 08:31N 37°57' W 008°53'0 0.0
2016-May-01 07:31N 37°57' W 008°53'0 0.0
2016-May-01 06:31N 37°57' W 008°53'0 0.0
2016-May-01 05:31N 37°57' W 008°53'0 0.0
2016-May-01 04:28N 37°57' W 008°53'2 2.0
2016-May-01 03:33N 37°56' W 008°55'9 8.8
2016-May-01 02:33N 38°02' W 009°04'1010.2
2016-May-01 01:33N 38°05' W 009°16'1010.4
2016-May-01 00:33N 38°09' W 009°29'1010.0
2016-Apr-30 23:32N 38°13' W 009°41'  
2016-Apr-28 06:07N 38°43' W 009°57'1710.5
2016-Apr-28 04:29N 38°26' W 009°53'3010.0
2016-Apr-28 01:31N 38°09' W 009°22'1010.3
2016-Apr-28 00:33N 38°05' W 009°11'1010.4
2016-Apr-27 23:33N 37°59' W 008°59'5 5.5
2016-Apr-27 22:33N 37°57' W 008°53'0 0.1
2016-Apr-27 21:33N 37°57' W 008°53'0 0.0
2016-Apr-27 20:33N 37°57' W 008°53'0 0.0
2016-Apr-27 19:33N 37°57' W 008°53'0 0.0
2016-Apr-27 18:33N 37°57' W 008°53'0 0.0
2016-Apr-27 17:33N 37°57' W 008°53'0 0.0
2016-Apr-27 16:33N 37°57' W 008°53'0 0.0
2016-Apr-27 15:33N 37°57' W 008°53'0 0.0
2016-Apr-27 14:33N 37°57' W 008°53'0 0.0
2016-Apr-27 13:33N 37°57' W 008°53'0 0.0
2016-Apr-27 12:33N 37°57' W 008°53'0 0.0
2016-Apr-27 11:33N 37°57' W 008°53'0 0.0
2016-Apr-27 10:33N 37°57' W 008°53'0 0.0
2016-Apr-27 09:33N 37°57' W 008°53'0 0.0
2016-Apr-27 08:33N 37°57' W 008°53'0 0.0
2016-Apr-27 07:33N 37°57' W 008°53'0 0.0
2016-Apr-27 06:33N 37°57' W 008°53'0 0.0
2016-Apr-27 05:30N 37°57' W 008°53'0 0.0
2016-Apr-27 04:33N 37°57' W 008°53'0 0.0
2016-Apr-27 03:33N 37°57' W 008°53'0 0.0
2016-Apr-27 02:33N 37°57' W 008°53'0 0.0
2016-Apr-27 01:33N 37°57' W 008°53'0 0.0
2016-Apr-27 00:33N 37°57' W 008°53'0 0.0
2016-Apr-26 23:33N 37°57' W 008°53'0 0.0
2016-Apr-26 22:33N 37°57' W 008°53'0 0.0
2016-Apr-26 21:33N 37°57' W 008°53'3 2.6
2016-Apr-26 20:33N 37°55' W 008°53'0 0.2
2016-Apr-26 19:33N 37°54' W 008°53'0 0.0
2016-Apr-26 18:33N 37°54' W 008°53'0 0.0
2016-Apr-26 17:32N 37°54' W 008°53'0 0.0
2016-Apr-26 16:33N 37°54' W 008°53'0 0.0
2016-Apr-26 15:33N 37°54' W 008°53'0 0.0
2016-Apr-26 14:33N 37°54' W 008°53'0 0.0
2016-Apr-26 13:33N 37°54' W 008°53'0 0.0
2016-Apr-26 12:32N 37°54' W 008°53'0 0.0
2016-Apr-26 11:33N 37°54' W 008°53'0 0.0
2016-Apr-26 10:33N 37°54' W 008°53'0 0.0
2016-Apr-26 09:33N 37°54' W 008°53'0 0.0
2016-Apr-26 08:33N 37°54' W 008°53'0 0.0
2016-Apr-26 07:33N 37°54' W 008°53'0 0.0
2016-Apr-26 06:33N 37°54' W 008°53'0 0.0
2016-Apr-26 05:33N 37°54' W 008°53'0 0.0
2016-Apr-26 04:30N 37°54' W 008°53'0 0.0
2016-Apr-26 03:33N 37°54' W 008°53'0 0.0
2016-Apr-26 02:32N 37°54' W 008°53'0 0.0
2016-Apr-26 01:32N 37°54' W 008°53'0 0.0
2016-Apr-26 00:30N 37°54' W 008°53'0 0.0
2016-Apr-25 23:33N 37°54' W 008°53'0 0.0
2016-Apr-25 22:32N 37°54' W 008°53'0 0.0
2016-Apr-25 21:33N 37°54' W 008°53'0 0.0
2016-Apr-25 20:32N 37°54' W 008°53'0 0.0
2016-Apr-25 19:33N 37°54' W 008°53'0 0.0
2016-Apr-25 18:33N 37°54' W 008°53'0 0.0
2016-Apr-25 17:32N 37°54' W 008°53'0 0.0
2016-Apr-25 16:33N 37°54' W 008°53'0 0.0
2016-Apr-25 15:30N 37°54' W 008°53'0 0.0
2016-Apr-25 14:33N 37°54' W 008°53'0 0.0
2016-Apr-25 13:32N 37°54' W 008°53'0 0.0
2016-Apr-25 12:33N 37°54' W 008°53'0 0.0
2016-Apr-25 11:33N 37°54' W 008°53'0 0.0
2016-Apr-25 10:33N 37°54' W 008°53'0 0.0
2016-Apr-25 09:33N 37°54' W 008°53'0 0.0
2016-Apr-25 08:33N 37°54' W 008°53'0 0.0
2016-Apr-25 07:32N 37°54' W 008°53'0 0.0
2016-Apr-25 06:33N 37°54' W 008°53'2 2.1
2016-Apr-25 05:33N 37°54' W 008°55'8 7.8
2016-Apr-25 04:33N 37°53' W 009°05'1110.9
2016-Apr-25 03:33N 37°53' W 009°19'1110.8
2016-Apr-25 02:33N 37°53' W 009°32'1110.5
2016-Apr-25 01:33N 37°53' W 009°46'1110.2
2016-Apr-25 00:30N 37°53' W 009°59'1010.2
2016-Apr-24 23:33N 37°53' W 010°12'1010.2
2016-Apr-24 22:33N 37°53' W 010°24'1010.2
2016-Apr-24 21:33N 37°53' W 010°38'2410.3
2016-Apr-24 19:12N 37°53' W 011°08'  
2016-Apr-22 12:12N 37°53' W 024°01'710.8
2016-Apr-22 11:33N 37°51' W 024°09'1110.8
2016-Apr-22 10:33N 37°48' W 024°22'1110.8
2016-Apr-22 09:33N 37°45' W 024°36'1110.7
2016-Apr-22 08:33N 37°43' W 024°49'1110.6
2016-Apr-22 07:33N 37°40' W 025°02'1110.6
2016-Apr-22 06:34N 37°40' W 025°15'1010.5
2016-Apr-22 05:33N 37°40' W 025°28'9 9.4
2016-Apr-22 04:33N 37°44' W 025°39'1 0.9
2016-Apr-22 03:32N 37°44' W 025°40'0 0.0
2016-Apr-22 02:32N 37°44' W 025°40'0 0.0
2016-Apr-22 01:32N 37°44' W 025°40'0 0.0
2016-Apr-22 00:32N 37°44' W 025°40'0 0.0
2016-Apr-21 23:32N 37°44' W 025°40'0 0.0
2016-Apr-21 22:32N 37°44' W 025°40'0 0.0
2016-Apr-21 21:32N 37°44' W 025°40'0 0.0
2016-Apr-21 20:32N 37°44' W 025°40'0 0.0
2016-Apr-21 19:32N 37°44' W 025°40'0 0.0
2016-Apr-21 18:32N 37°44' W 025°40'0 0.0
2016-Apr-21 17:32N 37°44' W 025°40'0 0.0
2016-Apr-21 16:32N 37°44' W 025°40'0 0.0
2016-Apr-21 15:32N 37°44' W 025°40'0 0.0
2016-Apr-21 14:32N 37°44' W 025°40'0 0.0
2016-Apr-21 13:32N 37°44' W 025°40'0 0.0
2016-Apr-21 12:32N 37°44' W 025°40'0 0.0
2016-Apr-21 11:32N 37°44' W 025°40'  

Dump ship's entire track history